createdAt,value
2022-10-01T00:02:09.681Z,73.38
2022-10-01T00:04:38.353Z,73.33
2022-10-01T00:07:10.845Z,73.21
2022-10-01T00:09:40.382Z,73.10
2022-10-01T00:12:08.797Z,72.83
2022-10-01T00:14:38.530Z,73.04
2022-10-01T00:17:06.501Z,73.18
2022-10-01T00:19:34.405Z,73.05
2022-10-01T00:22:02.331Z,72.71
2022-10-01T00:24:30.368Z,73.02
2022-10-01T00:27:00.572Z,73.04
2022-10-01T00:29:28.473Z,73.40
2022-10-01T00:31:57.406Z,73.40
2022-10-01T00:34:25.410Z,73.12
2022-10-01T00:36:53.340Z,73.16
2022-10-01T00:39:21.581Z,73.84
2022-10-01T00:41:51.108Z,73.60
2022-10-01T00:44:33.378Z,73.39
2022-10-01T00:47:06.834Z,72.97
2022-10-01T00:49:37.035Z,73.20
2022-10-01T00:52:10.100Z,72.52
2022-10-01T00:54:46.676Z,72.74
2022-10-01T00:57:17.953Z,72.87
2022-10-01T00:59:48.371Z,72.73
2022-10-01T01:02:16.403Z,73.06
2022-10-01T01:04:44.869Z,72.75
2022-10-01T01:07:14.023Z,73.05
2022-10-01T01:09:45.164Z,73.02
2022-10-01T01:12:24.950Z,72.99
2022-10-01T01:15:04.839Z,72.96
2022-10-01T01:17:40.792Z,73.42
2022-10-01T01:20:32.641Z,72.95
2022-10-01T01:23:10.708Z,72.39
2022-10-01T01:25:47.254Z,72.22
2022-10-01T01:28:22.951Z,72.69
2022-10-01T01:30:56.122Z,73.08
2022-10-01T01:33:28.170Z,72.50
2022-10-01T01:36:00.477Z,72.27
2022-10-01T01:38:35.035Z,72.33
2022-10-01T01:41:04.613Z,71.95
2022-10-01T01:43:39.096Z,71.01
2022-10-01T01:46:10.245Z,71.86
2022-10-01T01:48:41.954Z,71.97
2022-10-01T01:51:13.435Z,71.38
2022-10-01T01:53:42.326Z,71.15
2022-10-01T01:56:10.694Z,70.94
2022-10-01T01:58:40.787Z,70.53
2022-10-01T02:01:10.127Z,70.37
2022-10-01T02:03:38.010Z,70.50
2022-10-01T02:06:18.353Z,69.72
2022-10-01T02:08:52.400Z,69.66
2022-10-01T02:11:29.888Z,69.35
2022-10-01T02:14:09.209Z,69.25
2022-10-01T02:16:48.355Z,69.23
2022-10-01T02:19:25.080Z,69.24
2022-10-01T02:21:59.962Z,69.39
2022-10-01T02:24:37.655Z,69.59
2022-10-01T02:27:09.824Z,68.89
2022-10-01T02:29:40.588Z,69.42
2022-10-01T02:32:10.780Z,69.39
2022-10-01T02:34:41.272Z,69.12
2022-10-01T02:37:12.426Z,69.09
2022-10-01T02:39:43.505Z,69.03
2022-10-01T02:42:15.706Z,69.42
2022-10-01T02:44:46.746Z,68.99
2022-10-01T02:47:22.512Z,69.21
2022-10-01T02:49:52.002Z,69.40
2022-10-01T02:52:28.987Z,69.49
2022-10-01T02:55:00.516Z,69.21
2022-10-01T02:57:29.854Z,69.40
2022-10-01T03:00:00.703Z,70.04
2022-10-01T03:02:31.900Z,69.66
2022-10-01T03:05:00.872Z,70.23
2022-10-01T03:07:30.015Z,69.33
2022-10-01T03:09:57.928Z,69.12
2022-10-01T03:12:25.896Z,69.57
2022-10-01T03:14:54.024Z,69.55
2022-10-01T03:17:23.348Z,69.42
2022-10-01T03:19:51.286Z,69.02
2022-10-01T03:22:22.627Z,68.96
2022-10-01T03:24:50.761Z,68.95
2022-10-01T03:27:18.870Z,68.86
2022-10-01T03:29:46.737Z,68.70
2022-10-01T03:32:15.241Z,69.04
2022-10-01T03:34:44.686Z,69.16
2022-10-01T03:37:12.702Z,69.59
2022-10-01T03:39:40.689Z,69.37
2022-10-01T03:42:08.566Z,68.90
2022-10-01T03:44:36.542Z,68.50
2022-10-01T03:47:04.511Z,68.57
2022-10-01T03:49:32.391Z,68.92
2022-10-01T03:52:02.383Z,68.89
2022-10-01T03:54:31.546Z,68.61
2022-10-01T03:57:00.137Z,68.82
2022-10-01T03:59:29.576Z,69.30
2022-10-01T04:01:57.656Z,69.45
2022-10-01T04:04:25.638Z,69.36
2022-10-01T04:06:53.431Z,69.90
2022-10-01T04:09:22.891Z,70.79
2022-10-01T04:11:50.704Z,71.82
2022-10-01T04:14:18.562Z,72.94
2022-10-01T04:16:46.577Z,73.71
2022-10-01T04:19:14.476Z,74.05
2022-10-01T04:21:42.364Z,75.26
2022-10-01T04:24:10.270Z,75.95
2022-10-01T04:26:39.486Z,76.48
2022-10-01T04:29:07.478Z,76.84
2022-10-01T04:31:36.165Z,77.90
2022-10-01T04:34:04.905Z,77.78
2022-10-01T04:36:32.747Z,78.51
2022-10-01T04:39:02.620Z,79.04
2022-10-01T04:41:31.905Z,79.66
2022-10-01T04:44:01.885Z,79.35
2022-10-01T04:46:30.501Z,80.15
2022-10-01T04:48:59.145Z,79.69
2022-10-01T04:51:27.217Z,80.51
2022-10-01T04:53:56.391Z,80.14
2022-10-01T04:56:24.231Z,81.30
2022-10-01T04:58:52.125Z,81.29
2022-10-01T05:01:21.428Z,82.00
2022-10-01T05:03:49.413Z,81.95
2022-10-01T05:06:17.375Z,82.02
2022-10-01T05:08:45.254Z,82.44
2022-10-01T05:11:13.103Z,83.28
2022-10-01T05:13:41.783Z,83.42
2022-10-01T05:16:09.895Z,83.68
2022-10-01T05:18:40.603Z,84.85
2022-10-01T05:21:10.123Z,85.46
2022-10-01T05:23:38.072Z,85.28
2022-10-01T05:26:06.337Z,86.00
2022-10-01T05:28:34.541Z,85.91
2022-10-01T05:31:03.148Z,86.52
2022-10-01T05:33:32.195Z,87.11
2022-10-01T05:36:01.705Z,87.23
2022-10-01T05:38:29.503Z,87.45
2022-10-01T05:40:57.343Z,87.61
2022-10-01T05:43:25.737Z,87.29
2022-10-01T05:45:53.799Z,87.74
2022-10-01T05:48:21.870Z,87.47
2022-10-01T05:50:50.188Z,88.42
2022-10-01T05:53:19.431Z,88.58
2022-10-01T05:55:47.318Z,88.27
2022-10-01T05:58:16.174Z,89.01
2022-10-01T06:00:47.265Z,89.38
2022-10-01T06:03:15.369Z,90.04
2022-10-01T06:05:46.022Z,90.49
2022-10-01T06:08:14.758Z,91.00
2022-10-01T06:10:44.313Z,91.77
2022-10-01T06:13:17.975Z,91.63
2022-10-01T06:15:47.727Z,91.93
2022-10-01T06:18:16.036Z,91.77
2022-10-01T06:20:44.374Z,92.40
2022-10-01T06:23:13.993Z,92.39
2022-10-01T06:25:44.799Z,92.80
2022-10-01T06:28:14.908Z,93.18
2022-10-01T06:30:43.690Z,93.20
2022-10-01T06:33:13.483Z,93.26
2022-10-01T06:35:43.831Z,93.07
2022-10-01T06:38:12.254Z,93.62
2022-10-01T06:40:40.576Z,93.67
2022-10-01T06:43:10.691Z,94.16
2022-10-01T06:45:43.086Z,94.20
2022-10-01T06:48:15.107Z,94.69
2022-10-01T06:50:44.397Z,94.36
2022-10-01T06:53:13.158Z,94.74
2022-10-01T06:55:41.287Z,94.58
2022-10-01T06:58:14.638Z,94.61
2022-10-01T07:00:43.766Z,95.32
2022-10-01T07:03:15.979Z,95.11
2022-10-01T07:05:44.177Z,95.38
2022-10-01T07:08:13.117Z,95.82
2022-10-01T07:10:41.700Z,95.66
2022-10-01T07:13:12.325Z,96.53
2022-10-01T07:15:40.871Z,96.50
2022-10-01T07:18:10.306Z,96.09
2022-10-01T07:20:40.741Z,96.55
2022-10-01T07:23:11.876Z,96.25
2022-10-01T07:25:40.735Z,97.10
2022-10-01T07:28:16.582Z,97.81
2022-10-01T07:30:48.451Z,98.59
2022-10-01T07:33:19.320Z,99.20
2022-10-01T07:35:47.924Z,99.55
2022-10-01T07:38:16.197Z,99.14
2022-10-01T07:40:44.324Z,99.11
2022-10-01T07:43:14.688Z,99.08
2022-10-01T07:45:42.840Z,98.56
2022-10-01T07:48:10.783Z,98.76
2022-10-01T07:50:38.661Z,98.90
2022-10-01T07:53:06.566Z,97.64
2022-10-01T07:55:34.707Z,97.12
2022-10-01T07:58:02.679Z,97.58
2022-10-01T08:00:34.157Z,97.76
2022-10-01T08:03:02.524Z,98.34
2022-10-01T08:05:32.464Z,99.05
2022-10-01T08:08:01.485Z,99.42
2022-10-01T08:10:30.301Z,99.34
2022-10-01T08:13:01.440Z,99.60
2022-10-01T08:15:29.444Z,100.00
2022-10-01T08:18:02.061Z,100.00
2022-10-01T08:20:30.060Z,100.00
2022-10-01T08:23:02.847Z,100.00
2022-10-01T08:25:30.957Z,100.00
2022-10-01T08:28:00.187Z,100.00
2022-10-01T08:30:28.902Z,100.00
2022-10-01T08:32:58.995Z,100.00
2022-10-01T08:35:27.609Z,100.00
2022-10-01T08:37:56.717Z,100.00
2022-10-01T08:40:25.493Z,100.00
2022-10-01T08:42:57.343Z,100.00
2022-10-01T08:45:29.718Z,100.00
2022-10-01T08:48:06.606Z,100.00
2022-10-01T08:50:45.787Z,100.00
2022-10-01T08:53:19.396Z,100.00
2022-10-01T08:55:48.634Z,100.00
2022-10-01T08:58:24.817Z,100.00
2022-10-01T09:00:52.891Z,100.00
2022-10-01T09:03:22.142Z,100.00
2022-10-01T09:06:05.011Z,100.00
2022-10-01T09:08:45.843Z,100.00
2022-10-01T09:11:25.422Z,100.00
2022-10-01T09:14:07.932Z,100.00
2022-10-01T09:16:43.286Z,100.00
2022-10-01T09:19:31.625Z,100.00
2022-10-01T09:22:03.387Z,100.00
2022-10-01T09:24:43.419Z,100.00
2022-10-01T09:27:17.501Z,100.00
2022-10-01T09:29:50.766Z,100.00
2022-10-01T09:32:22.922Z,100.00
2022-10-01T09:34:53.465Z,100.00
2022-10-01T09:37:30.217Z,100.00
2022-10-01T09:40:14.955Z,100.00
2022-10-01T09:42:43.659Z,100.00
2022-10-01T09:45:12.906Z,100.00
2022-10-01T09:47:43.762Z,100.00
2022-10-01T09:50:18.575Z,100.00
2022-10-01T09:52:51.893Z,100.00
2022-10-01T09:55:29.214Z,100.00
2022-10-01T09:58:01.228Z,100.00
2022-10-01T10:00:29.301Z,100.00
2022-10-01T10:02:57.697Z,100.00
2022-10-01T10:05:28.999Z,100.00
2022-10-01T10:07:59.846Z,100.00
2022-10-01T10:10:30.918Z,100.00
2022-10-01T10:13:02.131Z,100.00
2022-10-01T10:15:32.673Z,100.00
2022-10-01T10:18:08.632Z,100.00
2022-10-01T10:20:41.272Z,100.00
2022-10-01T10:23:10.289Z,100.00
2022-10-01T10:25:38.092Z,100.00
2022-10-01T10:28:07.248Z,98.83
2022-10-01T10:30:38.278Z,98.64
2022-10-01T10:33:08.288Z,98.53
2022-10-01T10:35:37.112Z,97.17
2022-10-01T10:38:06.725Z,97.66
2022-10-01T10:40:42.378Z,97.12
2022-10-01T10:43:20.878Z,97.08
2022-10-01T10:45:49.666Z,95.44
2022-10-01T10:48:19.718Z,93.60
2022-10-01T10:50:48.270Z,93.17
2022-10-01T10:53:22.462Z,92.20
2022-10-01T10:55:59.576Z,92.12
2022-10-01T10:58:29.390Z,90.46
2022-10-01T11:01:01.109Z,91.03
2022-10-01T11:03:32.087Z,91.35
2022-10-01T11:06:04.440Z,91.25
2022-10-01T11:08:35.926Z,91.64
2022-10-01T11:11:18.319Z,91.12
2022-10-01T11:13:59.891Z,91.08
2022-10-01T11:16:42.661Z,88.72
2022-10-01T11:19:29.357Z,88.45
2022-10-01T11:22:16.722Z,88.67
2022-10-01T11:25:05.688Z,88.71
2022-10-01T11:27:43.428Z,89.14
2022-10-01T11:30:18.082Z,89.76
2022-10-01T11:32:52.731Z,89.44
2022-10-01T11:35:35.235Z,88.98
2022-10-01T11:38:31.397Z,87.98
2022-10-01T11:41:11.350Z,88.41
2022-10-01T11:43:44.202Z,88.05
2022-10-01T11:46:15.598Z,86.90
2022-10-01T11:48:48.082Z,85.62
2022-10-01T11:51:20.825Z,84.51
2022-10-01T11:53:55.054Z,83.50
2022-10-01T11:56:47.462Z,84.66
2022-10-01T11:59:22.621Z,83.44
2022-10-01T12:01:54.892Z,83.39
2022-10-01T12:04:32.817Z,83.93
2022-10-01T12:07:06.495Z,84.02
2022-10-01T12:09:47.322Z,82.24
2022-10-01T12:12:20.533Z,81.26
2022-10-01T12:14:55.345Z,80.73
2022-10-01T12:17:28.684Z,78.84
2022-10-01T12:20:01.514Z,79.21
2022-10-01T12:22:33.941Z,77.48
2022-10-01T12:25:01.941Z,77.32
2022-10-01T12:27:44.495Z,75.13
2022-10-01T12:30:16.894Z,75.23
2022-10-01T12:33:04.951Z,73.77
2022-10-01T12:35:47.492Z,73.51
2022-10-01T12:38:28.989Z,73.39
2022-10-01T12:41:05.077Z,73.59
2022-10-01T12:43:47.495Z,72.96
2022-10-01T12:46:25.875Z,73.42
2022-10-01T12:49:01.806Z,72.88
2022-10-01T12:51:41.429Z,72.48
2022-10-01T12:54:35.627Z,72.89
2022-10-01T12:57:14.545Z,73.84
2022-10-01T12:59:59.322Z,74.24
2022-10-01T13:02:45.601Z,75.18
2022-10-01T13:05:29.445Z,73.67
2022-10-01T13:08:13.506Z,72.66
2022-10-01T13:11:00.027Z,71.98
2022-10-01T13:13:32.876Z,72.47
2022-10-01T13:16:09.469Z,71.59
2022-10-01T13:18:47.126Z,71.57
2022-10-01T13:21:25.312Z,72.26
2022-10-01T13:23:59.980Z,73.87
2022-10-01T13:26:34.137Z,73.57
2022-10-01T13:29:13.316Z,75.93
2022-10-01T13:31:56.963Z,79.38
2022-10-01T13:34:38.954Z,82.15
2022-10-01T13:37:18.563Z,84.03
2022-10-01T13:39:48.088Z,85.04
2022-10-01T13:42:25.782Z,85.90
2022-10-01T13:44:56.519Z,87.05
2022-10-01T13:47:27.048Z,87.06
2022-10-01T13:49:57.907Z,86.89
2022-10-01T13:52:26.464Z,86.31
2022-10-01T13:54:56.996Z,86.77
2022-10-01T13:57:32.082Z,87.54
2022-10-01T14:00:02.489Z,87.72
2022-10-01T14:02:34.794Z,87.67
2022-10-01T14:05:32.964Z,86.87
2022-10-01T14:08:13.719Z,87.42
2022-10-01T14:11:00.698Z,87.72
2022-10-01T14:13:48.122Z,88.14
2022-10-01T14:16:17.460Z,87.48
2022-10-01T14:18:50.505Z,87.87
2022-10-01T14:21:37.041Z,88.26
2022-10-01T14:24:15.840Z,87.94
2022-10-01T14:26:53.581Z,87.74
2022-10-01T14:29:39.489Z,87.67
2022-10-01T14:32:23.472Z,87.77
2022-10-01T14:35:07.974Z,87.98
2022-10-01T14:37:40.383Z,87.60
2022-10-01T14:40:16.579Z,88.65
2022-10-01T14:42:44.641Z,88.81
2022-10-01T14:45:17.215Z,88.00
2022-10-01T14:47:45.842Z,88.04
2022-10-01T14:50:22.639Z,88.91
2022-10-01T14:52:51.756Z,88.56
2022-10-01T14:55:26.942Z,88.96
2022-10-01T14:57:57.170Z,88.57
2022-10-01T15:00:27.277Z,88.48
2022-10-01T15:03:04.845Z,89.23
2022-10-01T15:05:35.810Z,88.91
2022-10-01T15:08:11.976Z,88.91
2022-10-01T15:10:42.893Z,88.42
2022-10-01T15:13:18.942Z,88.60
2022-10-01T15:15:47.325Z,88.64
2022-10-01T15:18:20.607Z,88.53
2022-10-01T15:20:58.833Z,88.49
2022-10-01T15:23:29.244Z,88.46
2022-10-01T15:25:59.486Z,88.38
2022-10-01T15:28:31.923Z,89.62
2022-10-01T15:31:03.324Z,89.00
2022-10-01T15:33:33.530Z,88.60
2022-10-01T15:36:05.156Z,88.75
2022-10-01T15:38:34.158Z,89.22
2022-10-01T15:41:29.825Z,89.27
2022-10-01T15:43:53.364Z,90.01
2022-10-01T15:46:33.214Z,89.94
2022-10-01T15:49:18.696Z,90.48
2022-10-01T15:52:07.628Z,90.55
2022-10-01T15:54:36.641Z,90.55
2022-10-01T15:57:06.203Z,90.56
2022-10-01T15:59:35.705Z,91.79
2022-10-01T16:02:10.340Z,92.15
2022-10-01T16:04:38.461Z,92.54
2022-10-01T16:07:07.750Z,93.11
2022-10-01T16:09:35.875Z,93.07
2022-10-01T16:12:06.772Z,93.28
2022-10-01T16:14:37.869Z,93.53
2022-10-01T16:17:28.028Z,93.22
2022-10-01T16:20:00.931Z,93.90
2022-10-01T16:22:33.373Z,93.78
2022-10-01T16:25:04.355Z,94.10
2022-10-01T16:27:44.331Z,94.43
2022-10-01T16:30:20.176Z,94.60
2022-10-01T16:32:48.462Z,94.87
2022-10-01T16:35:21.458Z,94.79
2022-10-01T16:37:53.125Z,94.69
2022-10-01T16:40:24.046Z,94.69
2022-10-01T16:42:53.053Z,94.05
2022-10-01T16:45:24.323Z,94.08
2022-10-01T16:47:53.406Z,93.37
2022-10-01T16:50:22.839Z,93.63
2022-10-01T16:52:55.521Z,93.28
2022-10-01T16:55:25.993Z,92.98
2022-10-01T16:57:55.692Z,92.50
2022-10-01T17:00:25.916Z,92.22
2022-10-01T17:02:54.234Z,91.72
2022-10-01T17:05:25.763Z,91.32
2022-10-01T17:07:57.726Z,92.09
2022-10-01T17:10:26.053Z,91.86
2022-10-01T17:12:56.214Z,92.31
2022-10-01T17:15:27.097Z,92.29
2022-10-01T17:17:55.593Z,92.79
2022-10-01T17:20:25.213Z,92.88
2022-10-01T17:22:55.077Z,93.27
2022-10-01T17:25:25.179Z,93.83
2022-10-01T17:27:53.430Z,93.97
2022-10-01T17:30:21.578Z,94.63
2022-10-01T17:32:49.493Z,94.39
2022-10-01T17:35:18.214Z,94.50
2022-10-01T17:37:46.524Z,94.26
2022-10-01T17:40:16.081Z,94.84
2022-10-01T17:42:44.139Z,94.70
2022-10-01T17:45:14.287Z,94.89
2022-10-01T17:47:46.836Z,94.66
2022-10-01T17:50:15.956Z,94.63
2022-10-01T17:52:44.028Z,94.10
2022-10-01T17:55:12.898Z,94.69
2022-10-01T17:57:42.934Z,93.96
2022-10-01T18:00:11.740Z,94.11
2022-10-01T18:02:42.520Z,93.98
2022-10-01T18:05:12.621Z,93.56
2022-10-01T18:07:40.648Z,93.36
2022-10-01T18:10:11.307Z,93.23
2022-10-01T18:12:39.306Z,93.58
2022-10-01T18:15:10.137Z,93.30
2022-10-01T18:17:43.565Z,93.61
2022-10-01T18:20:19.729Z,93.99
2022-10-01T18:22:47.725Z,94.35
2022-10-01T18:25:16.124Z,94.94
2022-10-01T18:27:46.097Z,95.46
2022-10-01T18:30:15.566Z,95.60
2022-10-01T18:32:47.076Z,96.22
2022-10-01T18:35:22.014Z,95.49
2022-10-01T18:37:55.700Z,95.34
2022-10-01T18:40:28.458Z,94.53
2022-10-01T18:43:01.086Z,93.92
2022-10-01T18:45:49.568Z,93.38
2022-10-01T18:48:38.254Z,93.97
2022-10-01T18:51:17.027Z,93.96
2022-10-01T18:54:23.400Z,93.05
2022-10-01T18:56:58.496Z,92.94
2022-10-01T18:59:46.424Z,93.63
2022-10-01T19:02:37.271Z,93.48
2022-10-01T19:05:52.445Z,94.70
2022-10-01T19:08:51.615Z,94.82
2022-10-01T19:11:27.115Z,95.30
2022-10-01T19:14:02.905Z,95.23
2022-10-01T19:16:42.103Z,95.42
2022-10-01T19:19:28.161Z,96.00
2022-10-01T19:22:01.325Z,95.45
2022-10-01T19:24:46.096Z,95.85
2022-10-01T19:27:25.626Z,96.12
2022-10-01T19:30:03.641Z,96.32
2022-10-01T19:32:38.565Z,96.20
2022-10-01T19:35:16.993Z,95.71
2022-10-01T19:37:51.459Z,96.53
2022-10-01T19:40:30.333Z,96.85
2022-10-01T19:43:06.786Z,97.01
2022-10-01T19:45:43.671Z,97.17
2022-10-01T19:48:19.699Z,96.88
2022-10-01T19:50:55.893Z,96.84
2022-10-01T19:53:30.250Z,96.73
2022-10-01T19:56:01.437Z,96.89
2022-10-01T19:58:30.572Z,97.26
2022-10-01T20:01:01.265Z,97.83
2022-10-01T20:03:40.361Z,97.17
2022-10-01T20:06:18.776Z,97.73
2022-10-01T20:08:50.082Z,96.53
2022-10-01T20:11:26.943Z,96.13
2022-10-01T20:14:41.181Z,95.40
2022-10-01T20:17:17.625Z,95.95
2022-10-01T20:19:54.997Z,96.00
2022-10-01T20:22:31.498Z,95.44
2022-10-01T20:25:08.763Z,95.34
2022-10-01T20:27:49.073Z,94.37
2022-10-01T20:30:20.234Z,95.37
2022-10-01T20:32:57.782Z,95.00
2022-10-01T20:35:30.940Z,94.89
2022-10-01T20:38:07.318Z,94.88
2022-10-01T20:40:40.073Z,95.12
2022-10-01T20:43:14.485Z,95.03
2022-10-01T20:45:48.428Z,95.62
2022-10-01T20:48:20.907Z,95.08
2022-10-01T20:50:53.887Z,95.31
2022-10-01T20:53:31.604Z,96.24
2022-10-01T20:56:06.014Z,95.92
2022-10-01T20:58:44.677Z,95.24
2022-10-01T21:01:18.603Z,95.62
2022-10-01T21:03:50.533Z,95.48
2022-10-01T21:06:25.677Z,95.46
2022-10-01T21:09:00.045Z,95.20
2022-10-01T21:11:33.350Z,95.46
2022-10-01T21:14:11.938Z,95.51
2022-10-01T21:17:12.017Z,95.97
2022-10-01T21:19:57.999Z,95.71
2022-10-01T21:22:40.533Z,96.00
2022-10-01T21:25:27.132Z,96.26
2022-10-01T21:28:09.429Z,96.18
2022-10-01T21:30:50.500Z,96.27
2022-10-01T21:33:26.668Z,96.26
2022-10-01T21:36:01.839Z,96.18
2022-10-01T21:38:41.076Z,95.18
2022-10-01T21:41:38.361Z,95.19
2022-10-01T21:44:24.273Z,95.55
2022-10-01T21:46:59.663Z,95.73
2022-10-01T21:49:41.356Z,96.06
2022-10-01T21:52:27.715Z,95.87
2022-10-01T21:55:19.741Z,95.79
2022-10-01T21:58:14.656Z,95.89
2022-10-01T22:00:43.124Z,96.57
2022-10-01T22:03:19.255Z,96.23
2022-10-01T22:05:54.426Z,96.24
2022-10-01T22:08:57.427Z,95.34
2022-10-01T22:11:29.714Z,94.96
2022-10-01T22:14:02.896Z,94.27
2022-10-01T22:16:36.139Z,94.89
2022-10-01T22:19:10.868Z,94.32
2022-10-01T22:21:44.287Z,93.81
2022-10-01T22:24:15.927Z,93.91
2022-10-01T22:26:48.390Z,94.07
2022-10-01T22:29:21.553Z,94.67
2022-10-01T22:31:52.914Z,95.37
2022-10-01T22:34:23.874Z,94.38
2022-10-01T22:36:58.220Z,95.04
2022-10-01T22:39:27.692Z,95.62
2022-10-01T22:42:02.593Z,95.94
2022-10-01T22:44:32.452Z,95.49
2022-10-01T22:47:14.661Z,95.34
2022-10-01T22:50:02.299Z,95.25
2022-10-01T22:52:36.999Z,95.09
2022-10-01T22:55:24.827Z,95.95
2022-10-01T22:58:06.635Z,95.05
2022-10-01T23:00:44.038Z,95.68
2022-10-01T23:03:26.029Z,96.31
2022-10-01T23:06:03.795Z,97.24
2022-10-01T23:08:40.858Z,97.83
2022-10-01T23:11:22.086Z,98.35
2022-10-01T23:14:02.001Z,98.25
2022-10-01T23:16:42.303Z,98.63
2022-10-01T23:19:32.358Z,98.38
2022-10-01T23:22:06.736Z,98.70
2022-10-01T23:24:47.365Z,98.23
2022-10-01T23:27:28.644Z,98.97
2022-10-01T23:30:08.102Z,99.73
2022-10-01T23:32:56.535Z,99.98
2022-10-01T23:35:38.978Z,100.00
2022-10-01T23:38:23.010Z,100.00
2022-10-01T23:40:51.882Z,100.00
2022-10-01T23:43:26.981Z,100.00
2022-10-01T23:46:01.332Z,100.00
2022-10-01T23:48:38.725Z,100.00
2022-10-01T23:51:16.344Z,100.00
2022-10-01T23:53:50.613Z,100.00
2022-10-01T23:56:40.090Z,100.00
2022-10-01T23:59:14.073Z,100.00
